< Typhoon 199709 1997 Season Typhoon 199711 >
Typhoon 199710 (SCOTT)
General InformationTrack Information on Google MapsDetailed Wind InformationList of All Images || Disaster Info.ResourceGoogle EarthGE AnimationAtom FeedGeoJSON
Detalied Best Track (Time Zone = UTC)
Year Month Day Hour Lat. Long. Pressure (hPa) Wind (kt) Class Image Chart
1997 7 20 00 24.3 151.8 1010 0 2 Image Chart
1997 7 20 06 24.1 151.3 1010 0 2 Image Chart
1997 7 20 12 24.0 150.9 1010 0 2 Image Chart
1997 7 20 18 23.9 150.4 1008 0 2 Image Chart
1997 7 21 00 23.8 149.8 1008 0 2 Image Chart
1997 7 21 06 23.9 149.4 1006 0 2 Image Chart
1997 7 21 12 24.4 148.9 1006 0 2 Image Chart
1997 7 21 18 25.0 148.8 1006 0 2 Image Chart
1997 7 22 00 25.6 148.7 1006 0 2 Image Chart
1997 7 22 06 26.1 148.8 1006 0 2 Image Chart
1997 7 22 12 26.5 148.9 1006 0 2 Image Chart
1997 7 22 18 26.9 148.9 1006 0 2 Image Chart
1997 7 23 00 27.6 149.0 1006 0 2 Image Chart
1997 7 23 06 28.4 149.7 1006 0 2 Image Chart
1997 7 23 12 29.2 150.4 1006 0 2 Image Chart
1997 7 23 18 29.9 150.8 1006 0 2 Image Chart
1997 7 24 00 30.4 151.3 1006 0 2 Image Chart
1997 7 24 06 30.6 151.5 1006 0 2 Image Chart
1997 7 24 12 30.8 151.6 1006 0 2 Image Chart
1997 7 24 18 31.0 151.7 1006 0 2 Image Chart
1997 7 25 00 31.3 151.6 1004 0 2 Image Chart
1997 7 25 06 31.1 151.3 1004 0 2 Image Chart
1997 7 25 12 30.1 151.5 1004 0 2 Image Chart
1997 7 25 18 29.2 152.0 1004 0 2 Image Chart
1997 7 26 00 28.2 153.1 1004 0 2 Image Chart
1997 7 26 06 26.7 154.3 1004 0 2 Image Chart
1997 7 26 12 25.5 155.1 1004 0 2 Image Chart
1997 7 26 18 23.7 154.9 1002 0 2 Image Chart
1997 7 27 00 22.3 155.1 1002 0 2 Image Chart
1997 7 27 06 22.2 155.7 1002 0 2 Image Chart
1997 7 27 12 22.7 156.5 1000 0 2 Image Chart
1997 7 27 18 23.6 156.7 1000 0 2 Image Chart
1997 7 28 00 23.8 155.5 998 35 3 Image Chart
1997 7 28 06 23.9 155.4 996 35 3 Image Chart
1997 7 28 12 24.2 155.5 998 35 3 Image Chart
1997 7 28 18 24.5 155.6 994 40 3 Image Chart
1997 7 29 00 24.8 155.7 994 40 3 Image Chart
1997 7 29 06 25.5 155.9 992 40 3 Image Chart
1997 7 29 12 26.1 156.2 992 40 3 Image Chart
1997 7 29 18 26.7 156.8 992 40 3 Image Chart
1997 7 30 00 27.3 157.4 992 40 3 Image Chart
1997 7 30 06 28.0 158.3 992 40 3 Image Chart
1997 7 30 12 28.8 159.2 992 40 3 Image Chart
1997 7 30 18 29.7 159.7 994 40 3 Image Chart
1997 7 31 00 30.3 160.2 994 40 3 Image Chart
1997 7 31 06 30.6 161.4 994 40 3 Image Chart
1997 7 31 12 30.8 163.0 996 35 3 Image Chart
1997 7 31 18 31.0 164.5 996 35 3 Image Chart
1997 8 1 00 31.3 166.3 996 35 3 Image Chart
1997 8 1 06 31.7 168.2 996 35 3 Image Chart
1997 8 1 12 32.6 169.8 996 35 3 Image Chart
1997 8 1 18 33.7 170.9 996 35 3 Image Chart
1997 8 2 00 34.8 171.9 996 35 3 Image Chart
1997 8 2 06 36.6 173.2 996 35 3 Image Chart
1997 8 2 12 38.9 174.9 996 0 2 Image Chart
1997 8 2 18 42.3 178.3 992 0 2 Image Chart
1997 8 3 00 47.5 180.0 988 0 6 Image Chart
1997 8 3 06 52.0 181.0 988 0 6 Image Chart
Japan Meteorological Agency Best Track Data | Correction Date : 1998-01-19
< Typhoon 199709 1997 Season Typhoon 199711 >

Help